Shorewood, Illinois
Current Conditions -  °F | °C
As of 2:15 AM on Sunday 21 Dec 2014 (Local Time) from KJOT Reporting Station
Overcast Overcast  
Wind Chill: 27°   Ceiling: 2800
Heat Index: 32°   Visibility: 7mi
Dew Point: 28°   Wind: 5mph
Humidity: 83%   Direction: 160°SSE
Pressure: 30.25"   Gusts: NA
Location:  41.5°N, 88.22°W
Report Text: KJOT 210815Z AUTO 16004KT 7SM BKN028 OVC040 00/M02 A3025 RMK AO2 T00001025
Loading
Personal Weather Stations






























Interactive Weather Map New forecast layout! Learn more

10-Day Weather Forecast

Advertisements
Track Severe Weather on mobile